sensor_id;sensor_type;location;lat;lon;timestamp;temperature;humidity
54954;DHT22;40855;51.072;5.402;2023-02-01T00:01:55;5.90;99.90
54954;DHT22;40855;51.072;5.402;2023-02-01T00:04:22;5.90;99.90
54954;DHT22;40855;51.072;5.402;2023-02-01T00:06:48;5.90;99.90
54954;DHT22;40855;51.072;5.402;2023-02-01T00:09:13;5.90;99.90
54954;DHT22;40855;51.072;5.402;2023-02-01T00:11:39;5.90;99.90
54954;DHT22;40855;51.072;5.402;2023-02-01T00:14:05;5.90;99.90
54954;DHT22;40855;51.072;5.402;2023-02-01T00:16:31;5.90;99.90
54954;DHT22;40855;51.072;5.402;2023-02-01T00:19:10;5.90;99.90
54954;DHT22;40855;51.072;5.402;2023-02-01T00:21:37;5.90;99.90
54954;DHT22;40855;51.072;5.402;2023-02-01T00:24:03;5.80;99.90
54954;DHT22;40855;51.072;5.402;2023-02-01T00:26:40;5.80;99.90
54954;DHT22;40855;51.072;5.402;2023-02-01T00:29:11;5.80;99.90
54954;DHT22;40855;51.072;5.402;2023-02-01T00:31:37;5.80;99.90
54954;DHT22;40855;51.072;5.402;2023-02-01T00:34:03;5.80;99.90
54954;DHT22;40855;51.072;5.402;2023-02-01T00:36:29;5.80;99.90
54954;DHT22;40855;51.072;5.402;2023-02-01T00:38:55;5.80;99.90
54954;DHT22;40855;51.072;5.402;2023-02-01T00:41:21;5.70;99.90
54954;DHT22;40855;51.072;5.402;2023-02-01T00:43:48;5.70;99.90
54954;DHT22;40855;51.072;5.402;2023-02-01T00:46:15;5.60;99.90
54954;DHT22;40855;51.072;5.402;2023-02-01T00:48:41;5.70;99.90
54954;DHT22;40855;51.072;5.402;2023-02-01T00:51:12;5.70;99.90
54954;DHT22;40855;51.072;5.402;2023-02-01T00:53:38;5.70;99.90
54954;DHT22;40855;51.072;5.402;2023-02-01T00:56:05;5.70;99.90
54954;DHT22;40855;51.072;5.402;2023-02-01T00:58:31;5.60;99.90
54954;DHT22;40855;51.072;5.402;2023-02-01T01:01:25;5.60;99.90
54954;DHT22;40855;51.072;5.402;2023-02-01T01:03:54;5.60;99.90
54954;DHT22;40855;51.072;5.402;2023-02-01T01:06:24;5.60;99.90
54954;DHT22;40855;51.072;5.402;2023-02-01T01:08:52;5.50;99.90
54954;DHT22;40855;51.072;5.402;2023-02-01T01:11:21;5.60;99.90
54954;DHT22;40855;51.072;5.402;2023-02-01T01:13:49;5.60;99.90
54954;DHT22;40855;51.072;5.402;2023-02-01T01:16:15;5.60;99.90
54954;DHT22;40855;51.072;5.402;2023-02-01T01:18:41;5.60;99.90
54954;DHT22;40855;51.072;5.402;2023-02-01T01:21:08;5.60;99.90
54954;DHT22;40855;51.072;5.402;2023-02-01T01:23:35;5.60;99.90
54954;DHT22;40855;51.072;5.402;2023-02-01T01:26:08;5.50;99.90
54954;DHT22;40855;51.072;5.402;2023-02-01T01:28:34;5.60;99.90
54954;DHT22;40855;51.072;5.402;2023-02-01T01:31:00;5.50;99.90
54954;DHT22;40855;51.072;5.402;2023-02-01T01:33:26;5.60;99.90
54954;DHT22;40855;51.072;5.402;2023-02-01T01:35:51;5.60;99.90
54954;DHT22;40855;51.072;5.402;2023-02-01T01:38:17;5.60;99.90
54954;DHT22;40855;51.072;5.402;2023-02-01T01:40:47;5.60;99.90
54954;DHT22;40855;51.072;5.402;2023-02-01T01:43:16;5.50;99.90
54954;DHT22;40855;51.072;5.402;2023-02-01T01:45:43;5.60;99.90
54954;DHT22;40855;51.072;5.402;2023-02-01T01:48:25;5.60;99.90
54954;DHT22;40855;51.072;5.402;2023-02-01T01:51:02;5.50;99.90
54954;DHT22;40855;51.072;5.402;2023-02-01T01:53:33;5.50;99.90
54954;DHT22;40855;51.072;5.402;2023-02-01T01:56:01;5.50;99.90
54954;DHT22;40855;51.072;5.402;2023-02-01T01:58:28;5.50;99.90
54954;DHT22;40855;51.072;5.402;2023-02-01T02:00:55;5.50;99.90
54954;DHT22;40855;51.072;5.402;2023-02-01T02:03:27;5.50;99.90
54954;DHT22;40855;51.072;5.402;2023-02-01T02:05:57;5.50;99.90
54954;DHT22;40855;51.072;5.402;2023-02-01T02:08:26;5.50;99.90
54954;DHT22;40855;51.072;5.402;2023-02-01T02:10:52;5.50;99.90
54954;DHT22;40855;51.072;5.402;2023-02-01T02:13:36;5.50;99.90
54954;DHT22;40855;51.072;5.402;2023-02-01T02:27:50;5.40;99.90
54954;DHT22;40855;51.072;5.402;2023-02-01T02:38:43;5.40;99.90
54954;DHT22;40855;51.072;5.402;2023-02-01T02:41:18;5.40;99.90
54954;DHT22;40855;51.072;5.402;2023-02-01T02:44:13;5.40;99.90
54954;DHT22;40855;51.072;5.402;2023-02-01T02:47:03;5.40;99.90
54954;DHT22;40855;51.072;5.402;2023-02-01T02:53:12;5.40;99.90
54954;DHT22;40855;51.072;5.402;2023-02-01T02:55:58;5.30;99.90
54954;DHT22;40855;51.072;5.402;2023-02-01T02:58:46;5.30;99.90
54954;DHT22;40855;51.072;5.402;2023-02-01T03:01:31;5.30;99.90
54954;DHT22;40855;51.072;5.402;2023-02-01T03:04:16;5.30;99.90
54954;DHT22;40855;51.072;5.402;2023-02-01T03:06:44;5.30;99.90
54954;DHT22;40855;51.072;5.402;2023-02-01T03:09:34;5.30;99.90
54954;DHT22;40855;51.072;5.402;2023-02-01T03:12:05;5.30;99.90
54954;DHT22;40855;51.072;5.402;2023-02-01T03:14:55;5.30;99.90
54954;DHT22;40855;51.072;5.402;2023-02-01T03:17:27;5.30;99.90
54954;DHT22;40855;51.072;5.402;2023-02-01T03:19:59;5.30;99.90
54954;DHT22;40855;51.072;5.402;2023-02-01T03:22:28;5.30;99.90
54954;DHT22;40855;51.072;5.402;2023-02-01T03:25:05;5.30;99.90
54954;DHT22;40855;51.072;5.402;2023-02-01T03:27:37;5.30;99.90
54954;DHT22;40855;51.072;5.402;2023-02-01T03:30:22;5.30;99.90
54954;DHT22;40855;51.072;5.402;2023-02-01T03:32:51;5.30;99.90
54954;DHT22;40855;51.072;5.402;2023-02-01T03:35:40;5.30;99.90
54954;DHT22;40855;51.072;5.402;2023-02-01T03:38:24;5.20;99.90
54954;DHT22;40855;51.072;5.402;2023-02-01T03:41:02;5.20;99.90
54954;DHT22;40855;51.072;5.402;2023-02-01T03:43:37;5.20;99.90
54954;DHT22;40855;51.072;5.402;2023-02-01T03:46:09;5.20;99.90
54954;DHT22;40855;51.072;5.402;2023-02-01T03:48:38;5.20;99.90
54954;DHT22;40855;51.072;5.402;2023-02-01T03:51:05;5.20;99.90
54954;DHT22;40855;51.072;5.402;2023-02-01T03:53:35;5.30;99.90
54954;DHT22;40855;51.072;5.402;2023-02-01T03:56:02;5.20;99.90
54954;DHT22;40855;51.072;5.402;2023-02-01T03:58:28;5.20;99.90
54954;DHT22;40855;51.072;5.402;2023-02-01T04:00:58;5.20;99.90
54954;DHT22;40855;51.072;5.402;2023-02-01T04:03:26;5.20;99.90
54954;DHT22;40855;51.072;5.402;2023-02-01T04:05:53;5.20;99.90
54954;DHT22;40855;51.072;5.402;2023-02-01T04:08:24;5.20;99.90
54954;DHT22;40855;51.072;5.402;2023-02-01T04:10:50;5.30;99.90
54954;DHT22;40855;51.072;5.402;2023-02-01T04:13:16;5.30;99.90
54954;DHT22;40855;51.072;5.402;2023-02-01T04:15:41;5.30;99.90
54954;DHT22;40855;51.072;5.402;2023-02-01T04:18:07;5.30;99.90
54954;DHT22;40855;51.072;5.402;2023-02-01T04:20:33;5.30;99.90
54954;DHT22;40855;51.072;5.402;2023-02-01T04:22:58;5.20;99.90
54954;DHT22;40855;51.072;5.402;2023-02-01T04:25:24;5.30;99.90
54954;DHT22;40855;51.072;5.402;2023-02-01T04:27:50;5.20;99.90
54954;DHT22;40855;51.072;5.402;2023-02-01T04:30:16;5.20;99.90
54954;DHT22;40855;51.072;5.402;2023-02-01T04:32:42;5.20;99.90
54954;DHT22;40855;51.072;5.402;2023-02-01T04:35:08;5.20;99.90
54954;DHT22;40855;51.072;5.402;2023-02-01T04:37:34;5.20;99.90
54954;DHT22;40855;51.072;5.402;2023-02-01T04:40:00;5.20;99.90
54954;DHT22;40855;51.072;5.402;2023-02-01T04:42:27;5.30;99.90
54954;DHT22;40855;51.072;5.402;2023-02-01T04:44:53;5.20;99.90
54954;DHT22;40855;51.072;5.402;2023-02-01T04:47:18;5.30;99.90
54954;DHT22;40855;51.072;5.402;2023-02-01T04:49:44;5.30;99.90
54954;DHT22;40855;51.072;5.402;2023-02-01T04:52:10;5.20;99.90
54954;DHT22;40855;51.072;5.402;2023-02-01T04:54:35;5.20;99.90
54954;DHT22;40855;51.072;5.402;2023-02-01T04:57:01;5.20;99.90
54954;DHT22;40855;51.072;5.402;2023-02-01T04:59:27;5.20;99.90
54954;DHT22;40855;51.072;5.402;2023-02-01T05:01:54;5.20;99.90
54954;DHT22;40855;51.072;5.402;2023-02-01T05:04:19;5.20;99.90
54954;DHT22;40855;51.072;5.402;2023-02-01T05:06:45;5.30;99.90
54954;DHT22;40855;51.072;5.402;2023-02-01T05:09:11;5.20;99.90
54954;DHT22;40855;51.072;5.402;2023-02-01T05:11:37;5.20;99.90
54954;DHT22;40855;51.072;5.402;2023-02-01T05:14:21;5.20;99.90
54954;DHT22;40855;51.072;5.402;2023-02-01T05:16:47;5.20;99.90
54954;DHT22;40855;51.072;5.402;2023-02-01T05:19:12;5.20;99.90
54954;DHT22;40855;51.072;5.402;2023-02-01T05:21:38;5.20;99.90
54954;DHT22;40855;51.072;5.402;2023-02-01T05:24:04;5.20;99.90
54954;DHT22;40855;51.072;5.402;2023-02-01T05:26:40;5.20;99.90
54954;DHT22;40855;51.072;5.402;2023-02-01T05:29:07;5.20;99.90
54954;DHT22;40855;51.072;5.402;2023-02-01T05:31:33;5.30;99.90
54954;DHT22;40855;51.072;5.402;2023-02-01T05:33:58;5.20;99.90
54954;DHT22;40855;51.072;5.402;2023-02-01T05:36:24;5.10;99.90
54954;DHT22;40855;51.072;5.402;2023-02-01T05:38:50;5.20;99.90
54954;DHT22;40855;51.072;5.402;2023-02-01T05:41:15;5.20;99.90
54954;DHT22;40855;51.072;5.402;2023-02-01T05:43:41;5.20;99.90
54954;DHT22;40855;51.072;5.402;2023-02-01T05:46:07;5.30;99.90
54954;DHT22;40855;51.072;5.402;2023-02-01T05:48:36;5.20;99.90
54954;DHT22;40855;51.072;5.402;2023-02-01T05:51:01;5.10;99.90
54954;DHT22;40855;51.072;5.402;2023-02-01T05:53:27;5.20;99.90
54954;DHT22;40855;51.072;5.402;2023-02-01T05:55:53;5.20;99.90
54954;DHT22;40855;51.072;5.402;2023-02-01T05:58:18;5.10;99.90
54954;DHT22;40855;51.072;5.402;2023-02-01T06:00:44;5.10;99.90
54954;DHT22;40855;51.072;5.402;2023-02-01T06:03:10;5.10;99.90
54954;DHT22;40855;51.072;5.402;2023-02-01T06:05:35;5.10;99.90
54954;DHT22;40855;51.072;5.402;2023-02-01T06:08:02;5.10;99.90
54954;DHT22;40855;51.072;5.402;2023-02-01T06:10:28;5.10;99.90
54954;DHT22;40855;51.072;5.402;2023-02-01T06:12:54;5.10;99.90
54954;DHT22;40855;51.072;5.402;2023-02-01T06:15:19;5.10;99.90
54954;DHT22;40855;51.072;5.402;2023-02-01T06:17:46;5.20;99.90
54954;DHT22;40855;51.072;5.402;2023-02-01T06:20:13;5.10;99.90
54954;DHT22;40855;51.072;5.402;2023-02-01T06:22:40;5.10;99.90
54954;DHT22;40855;51.072;5.402;2023-02-01T06:25:07;5.10;99.90
54954;DHT22;40855;51.072;5.402;2023-02-01T06:27:33;5.10;99.90
54954;DHT22;40855;51.072;5.402;2023-02-01T06:29:59;5.10;99.90
54954;DHT22;40855;51.072;5.402;2023-02-01T06:32:25;5.10;99.90
54954;DHT22;40855;51.072;5.402;2023-02-01T06:34:51;5.10;99.90
54954;DHT22;40855;51.072;5.402;2023-02-01T06:37:21;5.00;99.90
54954;DHT22;40855;51.072;5.402;2023-02-01T06:39:48;5.00;99.90
54954;DHT22;40855;51.072;5.402;2023-02-01T06:42:14;5.10;99.90
54954;DHT22;40855;51.072;5.402;2023-02-01T06:44:40;5.10;99.90
54954;DHT22;40855;51.072;5.402;2023-02-01T06:47:06;5.10;99.90
54954;DHT22;40855;51.072;5.402;2023-02-01T06:49:32;5.10;99.90
54954;DHT22;40855;51.072;5.402;2023-02-01T06:51:57;5.10;99.90
54954;DHT22;40855;51.072;5.402;2023-02-01T06:54:26;5.10;99.90
54954;DHT22;40855;51.072;5.402;2023-02-01T06:56:52;5.10;99.90
54954;DHT22;40855;51.072;5.402;2023-02-01T06:59:18;5.10;99.90
54954;DHT22;40855;51.072;5.402;2023-02-01T07:01:44;5.00;99.90
54954;DHT22;40855;51.072;5.402;2023-02-01T07:04:13;5.10;99.90
54954;DHT22;40855;51.072;5.402;2023-02-01T07:06:39;5.10;99.90
54954;DHT22;40855;51.072;5.402;2023-02-01T07:09:05;5.00;99.90
54954;DHT22;40855;51.072;5.402;2023-02-01T07:11:31;5.00;99.90
54954;DHT22;40855;51.072;5.402;2023-02-01T07:13:57;5.10;99.90
54954;DHT22;40855;51.072;5.402;2023-02-01T07:16:23;5.00;99.90
54954;DHT22;40855;51.072;5.402;2023-02-01T07:18:50;5.00;99.90
54954;DHT22;40855;51.072;5.402;2023-02-01T07:21:16;5.00;99.90
54954;DHT22;40855;51.072;5.402;2023-02-01T07:23:42;5.00;99.90
54954;DHT22;40855;51.072;5.402;2023-02-01T07:26:10;5.10;99.90
54954;DHT22;40855;51.072;5.402;2023-02-01T07:28:37;5.10;99.90
54954;DHT22;40855;51.072;5.402;2023-02-01T07:31:12;5.10;99.90
54954;DHT22;40855;51.072;5.402;2023-02-01T07:33:41;5.10;99.90
54954;DHT22;40855;51.072;5.402;2023-02-01T07:36:10;5.00;99.90
54954;DHT22;40855;51.072;5.402;2023-02-01T07:38:36;5.10;99.90
54954;DHT22;40855;51.072;5.402;2023-02-01T07:41:05;5.00;99.90
54954;DHT22;40855;51.072;5.402;2023-02-01T07:43:32;5.00;99.90
54954;DHT22;40855;51.072;5.402;2023-02-01T07:45:58;5.00;99.90
54954;DHT22;40855;51.072;5.402;2023-02-01T07:48:25;5.00;99.90
54954;DHT22;40855;51.072;5.402;2023-02-01T07:53:25;5.10;99.90
54954;DHT22;40855;51.072;5.402;2023-02-01T07:55:50;5.10;99.90
54954;DHT22;40855;51.072;5.402;2023-02-01T07:58:16;5.10;99.90
54954;DHT22;40855;51.072;5.402;2023-02-01T08:00:42;5.00;99.90
54954;DHT22;40855;51.072;5.402;2023-02-01T08:03:26;5.00;99.90
54954;DHT22;40855;51.072;5.402;2023-02-01T08:05:55;5.00;99.90
54954;DHT22;40855;51.072;5.402;2023-02-01T08:08:22;5.10;99.90
54954;DHT22;40855;51.072;5.402;2023-02-01T08:10:48;5.00;99.90
54954;DHT22;40855;51.072;5.402;2023-02-01T08:13:13;5.10;99.90
54954;DHT22;40855;51.072;5.402;2023-02-01T08:15:39;5.00;99.90
54954;DHT22;40855;51.072;5.402;2023-02-01T08:18:05;5.10;99.90
54954;DHT22;40855;51.072;5.402;2023-02-01T08:20:31;5.10;99.90
54954;DHT22;40855;51.072;5.402;2023-02-01T08:22:57;5.10;99.90
54954;DHT22;40855;51.072;5.402;2023-02-01T08:25:23;5.10;99.90
54954;DHT22;40855;51.072;5.402;2023-02-01T08:27:50;5.10;99.90
54954;DHT22;40855;51.072;5.402;2023-02-01T08:30:16;5.10;99.90
54954;DHT22;40855;51.072;5.402;2023-02-01T08:32:42;5.20;99.90
54954;DHT22;40855;51.072;5.402;2023-02-01T08:35:08;5.20;99.90
54954;DHT22;40855;51.072;5.402;2023-02-01T08:37:33;5.20;99.90
54954;DHT22;40855;51.072;5.402;2023-02-01T08:39:59;5.20;99.90
54954;DHT22;40855;51.072;5.402;2023-02-01T08:42:25;5.20;99.90
54954;DHT22;40855;51.072;5.402;2023-02-01T08:45:10;5.30;99.90
54954;DHT22;40855;51.072;5.402;2023-02-01T08:47:35;5.30;99.90
54954;DHT22;40855;51.072;5.402;2023-02-01T08:50:01;5.40;99.90
54954;DHT22;40855;51.072;5.402;2023-02-01T08:52:27;5.40;99.90
54954;DHT22;40855;51.072;5.402;2023-02-01T08:54:53;5.40;99.90
54954;DHT22;40855;51.072;5.402;2023-02-01T08:57:18;5.40;99.90
54954;DHT22;40855;51.072;5.402;2023-02-01T08:59:44;5.50;99.90
54954;DHT22;40855;51.072;5.402;2023-02-01T09:02:14;5.50;99.90
54954;DHT22;40855;51.072;5.402;2023-02-01T09:04:41;5.50;99.90
54954;DHT22;40855;51.072;5.402;2023-02-01T09:07:07;5.60;99.90
54954;DHT22;40855;51.072;5.402;2023-02-01T09:09:33;5.60;99.90
54954;DHT22;40855;51.072;5.402;2023-02-01T09:11:59;5.60;99.90
54954;DHT22;40855;51.072;5.402;2023-02-01T09:14:25;5.70;99.90
54954;DHT22;40855;51.072;5.402;2023-02-01T09:16:50;5.80;99.90
54954;DHT22;40855;51.072;5.402;2023-02-01T09:19:16;5.80;99.90
54954;DHT22;40855;51.072;5.402;2023-02-01T09:21:42;5.80;99.90
54954;DHT22;40855;51.072;5.402;2023-02-01T09:24:10;5.80;99.90
54954;DHT22;40855;51.072;5.402;2023-02-01T09:26:36;5.80;99.90
54954;DHT22;40855;51.072;5.402;2023-02-01T09:29:03;5.80;99.90
54954;DHT22;40855;51.072;5.402;2023-02-01T09:31:31;5.90;99.90
54954;DHT22;40855;51.072;5.402;2023-02-01T09:33:57;5.90;99.90
54954;DHT22;40855;51.072;5.402;2023-02-01T09:36:23;5.90;99.90
54954;DHT22;40855;51.072;5.402;2023-02-01T09:38:49;5.90;99.90
54954;DHT22;40855;51.072;5.402;2023-02-01T09:46:47;6.00;99.90
54954;DHT22;40855;51.072;5.402;2023-02-01T09:49:18;6.10;99.90
54954;DHT22;40855;51.072;5.402;2023-02-01T09:51:49;6.10;99.90
54954;DHT22;40855;51.072;5.402;2023-02-01T09:54:18;6.10;99.90
54954;DHT22;40855;51.072;5.402;2023-02-01T09:57:31;6.10;99.90
54954;DHT22;40855;51.072;5.402;2023-02-01T10:00:00;6.30;99.90
54954;DHT22;40855;51.072;5.402;2023-02-01T10:02:28;6.30;99.90
54954;DHT22;40855;51.072;5.402;2023-02-01T10:04:58;6.30;99.90
54954;DHT22;40855;51.072;5.402;2023-02-01T10:15:41;6.50;99.90
54954;DHT22;40855;51.072;5.402;2023-02-01T10:26:32;6.70;99.90
54954;DHT22;40855;51.072;5.402;2023-02-01T10:29:01;6.70;99.90
54954;DHT22;40855;51.072;5.402;2023-02-01T10:31:30;6.80;99.90
54954;DHT22;40855;51.072;5.402;2023-02-01T10:34:03;6.80;99.90
54954;DHT22;40855;51.072;5.402;2023-02-01T10:36:36;6.90;99.90
54954;DHT22;40855;51.072;5.402;2023-02-01T10:39:05;6.90;99.90
54954;DHT22;40855;51.072;5.402;2023-02-01T10:41:35;6.90;99.90
54954;DHT22;40855;51.072;5.402;2023-02-01T10:44:04;7.10;99.90
54954;DHT22;40855;51.072;5.402;2023-02-01T10:46:33;7.00;99.90
54954;DHT22;40855;51.072;5.402;2023-02-01T10:49:03;7.10;99.90
54954;DHT22;40855;51.072;5.402;2023-02-01T10:54:16;7.10;99.90
54954;DHT22;40855;51.072;5.402;2023-02-01T10:56:44;7.20;99.90
54954;DHT22;40855;51.072;5.402;2023-02-01T10:59:21;7.30;99.90
54954;DHT22;40855;51.072;5.402;2023-02-01T11:01:50;7.40;99.90
54954;DHT22;40855;51.072;5.402;2023-02-01T11:04:20;7.50;99.90
54954;DHT22;40855;51.072;5.402;2023-02-01T11:07:15;7.40;99.90
54954;DHT22;40855;51.072;5.402;2023-02-01T11:09:41;7.40;99.90
54954;DHT22;40855;51.072;5.402;2023-02-01T11:15:18;7.40;99.90
54954;DHT22;40855;51.072;5.402;2023-02-01T11:17:46;7.60;99.90
54954;DHT22;40855;51.072;5.402;2023-02-01T11:22:57;7.60;99.90
54954;DHT22;40855;51.072;5.402;2023-02-01T11:25:23;7.70;99.90
54954;DHT22;40855;51.072;5.402;2023-02-01T11:27:50;7.70;99.90
54954;DHT22;40855;51.072;5.402;2023-02-01T11:30:22;7.70;99.90
54954;DHT22;40855;51.072;5.402;2023-02-01T11:32:50;7.70;99.90
54954;DHT22;40855;51.072;5.402;2023-02-01T11:35:19;7.70;99.90
54954;DHT22;40855;51.072;5.402;2023-02-01T11:37:59;7.80;99.90
54954;DHT22;40855;51.072;5.402;2023-02-01T11:40:35;7.80;99.90
54954;DHT22;40855;51.072;5.402;2023-02-01T11:43:28;7.90;99.90
54954;DHT22;40855;51.072;5.402;2023-02-01T11:48:24;7.90;99.90
54954;DHT22;40855;51.072;5.402;2023-02-01T12:10:12;8.20;99.90
54954;DHT22;40855;51.072;5.402;2023-02-01T12:16:07;8.20;99.90
54954;DHT22;40855;51.072;5.402;2023-02-01T12:29:08;8.30;99.90
54954;DHT22;40855;51.072;5.402;2023-02-01T12:32:16;8.20;99.90
54954;DHT22;40855;51.072;5.402;2023-02-01T12:43:52;8.20;99.90
54954;DHT22;40855;51.072;5.402;2023-02-01T12:46:41;8.20;99.90
54954;DHT22;40855;51.072;5.402;2023-02-01T12:49:27;8.20;99.90
54954;DHT22;40855;51.072;5.402;2023-02-01T12:52:12;8.20;99.90
54954;DHT22;40855;51.072;5.402;2023-02-01T12:55:01;8.20;99.90
54954;DHT22;40855;51.072;5.402;2023-02-01T12:57:35;8.20;99.90
54954;DHT22;40855;51.072;5.402;2023-02-01T13:03:01;8.20;99.90
54954;DHT22;40855;51.072;5.402;2023-02-01T13:06:01;8.20;99.90
54954;DHT22;40855;51.072;5.402;2023-02-01T13:11:28;8.20;99.90
54954;DHT22;40855;51.072;5.402;2023-02-01T13:17:01;8.20;99.90
54954;DHT22;40855;51.072;5.402;2023-02-01T13:19:47;8.20;99.90
54954;DHT22;40855;51.072;5.402;2023-02-01T13:22:37;8.30;99.90
54954;DHT22;40855;51.072;5.402;2023-02-01T13:25:29;8.20;99.90
54954;DHT22;40855;51.072;5.402;2023-02-01T13:28:03;8.20;99.90
54954;DHT22;40855;51.072;5.402;2023-02-01T13:30:45;8.20;99.90
54954;DHT22;40855;51.072;5.402;2023-02-01T13:36:00;8.30;99.90
54954;DHT22;40855;51.072;5.402;2023-02-01T13:42:16;8.30;99.90
54954;DHT22;40855;51.072;5.402;2023-02-01T13:44:26;8.30;99.90
54954;DHT22;40855;51.072;5.402;2023-02-01T13:46:56;8.30;99.90
54954;DHT22;40855;51.072;5.402;2023-02-01T13:49:28;8.40;99.90
54954;DHT22;40855;51.072;5.402;2023-02-01T13:51:57;8.30;99.90
54954;DHT22;40855;51.072;5.402;2023-02-01T13:54:36;8.30;99.90
54954;DHT22;40855;51.072;5.402;2023-02-01T13:57:05;8.30;99.90
54954;DHT22;40855;51.072;5.402;2023-02-01T14:05:11;8.40;99.90
54954;DHT22;40855;51.072;5.402;2023-02-01T14:10:54;8.40;99.90
54954;DHT22;40855;51.072;5.402;2023-02-01T14:21:30;8.40;99.90
54954;DHT22;40855;51.072;5.402;2023-02-01T14:29:03;8.60;99.90
54954;DHT22;40855;51.072;5.402;2023-02-01T14:31:40;8.50;99.90
54954;DHT22;40855;51.072;5.402;2023-02-01T14:34:32;8.50;99.90
54954;DHT22;40855;51.072;5.402;2023-02-01T14:37:07;8.60;99.90
54954;DHT22;40855;51.072;5.402;2023-02-01T14:42:21;8.50;99.90
54954;DHT22;40855;51.072;5.402;2023-02-01T14:44:48;8.50;99.90
54954;DHT22;40855;51.072;5.402;2023-02-01T14:52:23;8.50;99.90
54954;DHT22;40855;51.072;5.402;2023-02-01T14:54:56;8.50;99.90
54954;DHT22;40855;51.072;5.402;2023-02-01T14:57:27;8.50;99.90
54954;DHT22;40855;51.072;5.402;2023-02-01T15:02:49;8.50;99.90
54954;DHT22;40855;51.072;5.402;2023-02-01T15:05:28;8.60;99.90
54954;DHT22;40855;51.072;5.402;2023-02-01T15:08:12;8.60;99.90
54954;DHT22;40855;51.072;5.402;2023-02-01T15:10:43;8.60;99.90
54954;DHT22;40855;51.072;5.402;2023-02-01T15:13:22;8.60;99.90
54954;DHT22;40855;51.072;5.402;2023-02-01T15:16:10;8.60;99.90
54954;DHT22;40855;51.072;5.402;2023-02-01T15:18:37;8.60;99.90
54954;DHT22;40855;51.072;5.402;2023-02-01T15:21:04;8.50;99.90
54954;DHT22;40855;51.072;5.402;2023-02-01T15:23:32;8.60;99.90
54954;DHT22;40855;51.072;5.402;2023-02-01T15:25:58;8.60;99.90
54954;DHT22;40855;51.072;5.402;2023-02-01T15:28:25;8.60;99.90
54954;DHT22;40855;51.072;5.402;2023-02-01T15:33:22;8.50;99.90
54954;DHT22;40855;51.072;5.402;2023-02-01T15:35:50;8.50;99.90
54954;DHT22;40855;51.072;5.402;2023-02-01T15:43:30;8.60;99.90
54954;DHT22;40855;51.072;5.402;2023-02-01T15:45:58;8.60;99.90
54954;DHT22;40855;51.072;5.402;2023-02-01T15:48:26;8.50;99.90
54954;DHT22;40855;51.072;5.402;2023-02-01T15:50:53;8.60;99.90
54954;DHT22;40855;51.072;5.402;2023-02-01T15:53:23;8.50;99.90
54954;DHT22;40855;51.072;5.402;2023-02-01T15:55:55;8.50;99.90
54954;DHT22;40855;51.072;5.402;2023-02-01T15:58:23;8.50;99.90
54954;DHT22;40855;51.072;5.402;2023-02-01T16:01:01;8.60;99.90
54954;DHT22;40855;51.072;5.402;2023-02-01T16:03:37;8.60;99.90
54954;DHT22;40855;51.072;5.402;2023-02-01T16:06:25;8.50;99.90
54954;DHT22;40855;51.072;5.402;2023-02-01T16:11:39;8.60;99.90
54954;DHT22;40855;51.072;5.402;2023-02-01T16:14:05;8.60;99.90
54954;DHT22;40855;51.072;5.402;2023-02-01T16:16:31;8.60;99.90
54954;DHT22;40855;51.072;5.402;2023-02-01T16:18:57;8.50;99.90
54954;DHT22;40855;51.072;5.402;2023-02-01T16:21:25;8.50;99.90
54954;DHT22;40855;51.072;5.402;2023-02-01T16:23:52;8.50;99.90
54954;DHT22;40855;51.072;5.402;2023-02-01T16:26:19;8.50;99.90
54954;DHT22;40855;51.072;5.402;2023-02-01T16:28:45;8.50;99.90
54954;DHT22;40855;51.072;5.402;2023-02-01T16:31:12;8.50;99.90
54954;DHT22;40855;51.072;5.402;2023-02-01T16:33:46;8.50;99.90
54954;DHT22;40855;51.072;5.402;2023-02-01T16:36:12;8.40;99.90
54954;DHT22;40855;51.072;5.402;2023-02-01T16:38:39;8.50;99.90
54954;DHT22;40855;51.072;5.402;2023-02-01T16:41:05;8.50;99.90
54954;DHT22;40855;51.072;5.402;2023-02-01T16:43:31;8.50;99.90
54954;DHT22;40855;51.072;5.402;2023-02-01T16:46:00;8.50;99.90
54954;DHT22;40855;51.072;5.402;2023-02-01T16:48:34;8.50;99.90
54954;DHT22;40855;51.072;5.402;2023-02-01T16:51:03;8.50;99.90
54954;DHT22;40855;51.072;5.402;2023-02-01T16:53:30;8.40;99.90
54954;DHT22;40855;51.072;5.402;2023-02-01T16:55:57;8.50;99.90
54954;DHT22;40855;51.072;5.402;2023-02-01T16:58:24;8.40;99.90
54954;DHT22;40855;51.072;5.402;2023-02-01T17:00:50;8.40;99.90
54954;DHT22;40855;51.072;5.402;2023-02-01T17:03:18;8.40;99.90
54954;DHT22;40855;51.072;5.402;2023-02-01T17:05:47;8.40;99.90
54954;DHT22;40855;51.072;5.402;2023-02-01T17:08:17;8.40;99.90
54954;DHT22;40855;51.072;5.402;2023-02-01T17:10:45;8.40;99.90
54954;DHT22;40855;51.072;5.402;2023-02-01T17:13:15;8.40;99.90
54954;DHT22;40855;51.072;5.402;2023-02-01T17:15:48;8.40;99.90
54954;DHT22;40855;51.072;5.402;2023-02-01T17:18:16;8.30;99.90
54954;DHT22;40855;51.072;5.402;2023-02-01T17:20:42;8.40;99.90
54954;DHT22;40855;51.072;5.402;2023-02-01T17:23:09;8.30;99.90
54954;DHT22;40855;51.072;5.402;2023-02-01T17:25:35;8.30;99.90
54954;DHT22;40855;51.072;5.402;2023-02-01T17:28:00;8.30;99.90
54954;DHT22;40855;51.072;5.402;2023-02-01T17:30:26;8.40;99.90
54954;DHT22;40855;51.072;5.402;2023-02-01T17:32:52;8.30;99.90
54954;DHT22;40855;51.072;5.402;2023-02-01T17:35:21;8.30;99.90
54954;DHT22;40855;51.072;5.402;2023-02-01T17:37:48;8.30;99.90
54954;DHT22;40855;51.072;5.402;2023-02-01T17:40:14;8.20;99.90
54954;DHT22;40855;51.072;5.402;2023-02-01T17:42:40;8.30;99.90
54954;DHT22;40855;51.072;5.402;2023-02-01T17:45:36;8.30;99.90
54954;DHT22;40855;51.072;5.402;2023-02-01T17:48:06;8.20;99.90
54954;DHT22;40855;51.072;5.402;2023-02-01T17:50:35;8.30;99.90
54954;DHT22;40855;51.072;5.402;2023-02-01T17:53:02;8.20;99.90
54954;DHT22;40855;51.072;5.402;2023-02-01T17:55:28;8.20;99.90
54954;DHT22;40855;51.072;5.402;2023-02-01T17:57:54;8.20;99.90
54954;DHT22;40855;51.072;5.402;2023-02-01T18:00:23;8.20;99.90
54954;DHT22;40855;51.072;5.402;2023-02-01T18:02:48;8.20;99.90
54954;DHT22;40855;51.072;5.402;2023-02-01T18:07:58;8.20;99.90
54954;DHT22;40855;51.072;5.402;2023-02-01T18:10:24;8.20;99.90
54954;DHT22;40855;51.072;5.402;2023-02-01T18:12:49;8.20;99.90
54954;DHT22;40855;51.072;5.402;2023-02-01T18:17:41;8.10;99.90
54954;DHT22;40855;51.072;5.402;2023-02-01T18:20:18;8.10;99.90
54954;DHT22;40855;51.072;5.402;2023-02-01T18:22:45;8.20;99.90
54954;DHT22;40855;51.072;5.402;2023-02-01T18:25:19;8.20;99.90
54954;DHT22;40855;51.072;5.402;2023-02-01T18:27:47;8.20;99.90
54954;DHT22;40855;51.072;5.402;2023-02-01T18:30:13;8.20;99.90
54954;DHT22;40855;51.072;5.402;2023-02-01T18:32:41;8.20;99.90
54954;DHT22;40855;51.072;5.402;2023-02-01T18:35:18;8.20;99.90
54954;DHT22;40855;51.072;5.402;2023-02-01T18:37:44;8.20;99.90
54954;DHT22;40855;51.072;5.402;2023-02-01T18:40:18;8.20;99.90
54954;DHT22;40855;51.072;5.402;2023-02-01T18:42:44;8.20;99.90
54954;DHT22;40855;51.072;5.402;2023-02-01T18:45:35;8.20;99.90
54954;DHT22;40855;51.072;5.402;2023-02-01T18:48:03;8.20;99.90